Metar Cercanos

 

LEPA - Palma De Mallorc, Spain
Distance from station: ONO 38km
Actualización: 15/08/2018 01:30
Few Clouds
Few Clouds
 Viento del calm
Viento: Calma
Temperatura: 24°C
Rocío: 21°C
Humedad: 83%
Barómetro: 1018 hPa
Clouds: Few Clouds
Visibility: 10 km
Cloud details: Few Clouds 853 m
2018/08/14 23:30 LEPA 142330Z 00000KT 9999 FEW028 24/21 Q1018 NOSIG
LEMH - Mahon/Menorca Is, Spain
Distance from station: ENE 105km
Actualización: 15/08/2018 01:30
Despejado
Despejado
 Viento del N
Viento: N 7 km/h
Temperatura: 22°C
Rocío: 16°C
Humedad: 69%
Barómetro: 1017 hPa
Clouds: Despejado
Visibility: 10 km
2018/08/14 23:30 LEMH 142330Z AUTO 36004KT 9999 NCD 22/16 Q1017
 
LEIB - Ibiza/Es Codola, Spain
Distance from station: OSO 165km
Actualización: 15/08/2018 01:30
Parcialmente nuboso
Parcialmente nuboso
 Viento del ESE
Viento: ESE 11 km/h
Temperatura: 27°C
Indice Calor: 29°C
Rocío: 22°C
Humedad: 74%
Barómetro: 1017 hPa
Clouds: Parcialmente nuboso
Visibility: 10 km
Cloud details: Few Clouds 549 m
Parcialmente nuboso 732 m
2018/08/14 23:30 LEIB 142330Z 11006KT 070V150 9999 FEW018 SCT024 27/22 Q1017 NOSIG
LEBL - Barcelona Airpor, Spain
Distance from station: NNO 225km
Actualización: 15/08/2018 01:30
Few Clouds
Few Clouds
 Viento del varies
Viento: varies 2 km/h
Temperatura: 25°C
Rocío: 19°C
Humedad: 69%
Barómetro: 1018 hPa
Clouds: Few Clouds
Visibility: 10 km
Cloud details: Few Clouds 1067 m
2018/08/14 23:30 LEBL 142330Z VRB01KT 9999 FEW035 25/19 Q1018 NOSIG
 
LEVC - Valencia (civ/Mi, Spain
Distance from station: NO 188km
Actualización: 15/08/2018 01:30
Few Clouds
Few Clouds
 Viento del N
Viento: N 6 km/h
Temperatura: 26°C
Rocío: 21°C
Humedad: 74%
Barómetro: 1018 hPa
Clouds: Few Clouds
Visibility: 10 km
Cloud details: Few Clouds 762 m
2018/08/14 23:30 LEVC 142330Z 35003KT 300V040 9999 FEW025 26/21 Q1018 NOSIG
LEGE - Gerona/Costa Bra, Spain
Distance from station: N 276km
Actualización: 15/08/2018 01:30
Parcialmente nuboso
Parcialmente nuboso
 Viento del varies
Viento: varies 2 km/h
Temperatura: 20°C
Rocío: 18°C
Humedad: 88%
Barómetro: 1018 hPa
Clouds: Parcialmente nuboso
Visibility: 10 km
Cloud details: Parcialmente nuboso 1372 m
2018/08/14 23:30 LEGE 142330Z VRB01KT 9999 SCT045 20/18 Q1018
 
LEAL - Alicante/El Alte, Spain
Distance from station: OSO 344km
Actualización: 15/08/2018 01:30
Muy nuboso
Muy nuboso
 Viento del ENE
Viento: ENE 13 km/h
Temperatura: 27°C
Indice Calor: 30°C
Rocío: 23°C
Humedad: 79%
Barómetro: 1017 hPa
Clouds: Muy nuboso
Visibility: 10 km
Cloud details: Muy nuboso 549 m
2018/08/14 23:30 LEAL 142330Z 07007KT 9999 BKN018 27/23 Q1017 NOSIG
LEAM - Almeria Airport, Spain
Distance from station: SSO 56km
Actualización: 15/08/2018 01:30
Despejado
Despejado
 Viento del E
Viento: E 11 km/h
Temperatura: 26°C
Rocío: 22°C
Humedad: 79%
Barómetro: 1016 hPa
Clouds: Despejado
Visibility: 10 km
2018/08/14 23:30 LEAM 142330Z AUTO 08006KT 9999 NCD 26/22 Q1016
 
LEZG - Zaragoza (mil/Ci, Spain
Distance from station: NO 431km
Actualización: 15/08/2018 01:30
Despejado
Despejado
 Viento del ONO
Viento: ONO 28 km/h
Temperatura: 19°C
Rocío: 12°C
Humedad: 64%
Barómetro: 1020 hPa
Resumen: Despejado
Visibility: greater than 10 km
2018/08/14 23:30 LEZG 142330Z 30015KT 260V330 CAVOK 19/12 Q1020
LEMD - Madrid/Barajas, Spain
Distance from station: ONO 234km
Actualización: 15/08/2018 01:30
Despejado
Despejado
 Viento del NNE
Viento: NNE 9 km/h
Temperatura: 24°C
Rocío: 10°C
Humedad: 41%
Barómetro: 1019 hPa
Resumen: Despejado
Visibility: greater than 10 km
2018/08/14 23:30 LEMD 142330Z 03005KT 330V080 CAVOK 24/10 Q1019 NOSIG
 
LEGR - Granada Airport, Spain
Distance from station: OSO 62km
Actualización: 15/08/2018 01:30
Despejado
Despejado
 Viento del varies
Viento: varies 2 km/h
Temperatura: 23°C
Rocío: 11°C
Humedad: 47%
Barómetro: 1019 hPa
Clouds: Despejado
Visibility: 10 km
2018/08/14 23:30 LEGR 142330Z AUTO VRB01KT 9999 NCD 23/11 Q1019
LEMG - Malaga (civ/Mil), Spain
Distance from station: OSO 227km
Actualización: 15/08/2018 01:30
Despejado
Despejado
 Viento del SE
Viento: SE 4 km/h
Temperatura: 24°C
Rocío: 20°C
Humedad: 78%
Barómetro: 1016 hPa
Resumen: Despejado
Visibility: greater than 10 km
2018/08/14 23:30 LEMG 142330Z 13002KT CAVOK 24/20 Q1016 NOSIG
 
LEZL - Sevilla (civ/Mil, Spain
Distance from station: S 318km
Actualización: 15/08/2018 01:30
Despejado
Despejado
 Viento del SSO
Viento: SSO 11 km/h
Temperatura: 21°C
Rocío: 16°C
Humedad: 73%
Barómetro: 1016 hPa
Resumen: Despejado
Visibility: greater than 10 km
2018/08/14 23:30 LEZL 142330Z 20006KT 160V240 CAVOK 21/16 Q1016 NOSIG
LEVT - Vitoria, Spain
Distance from station: NO 226km
Actualización: 15/08/2018 01:30
Muy nuboso
Muy nuboso
 Viento del calm
Viento: Calma
Temperatura: 15°C
Rocío: 13°C
Humedad: 88%
Barómetro: 1024 hPa
Clouds: Muy nuboso
Visibility: 10 km
Cloud details: Few Clouds 610 m
Muy nuboso 1067 m
2018/08/14 23:30 LEVT 142330Z 00000KT 9999 FEW020 BKN035 15/13 Q1024
 
LEBB - Bilbao/Sondica, Spain
Distance from station: NNO 235km
Actualización: 15/08/2018 01:30
Parcialmente nuboso
Parcialmente nuboso
 Viento del calm
Viento: Calma
Temperatura: 19°C
Rocío: 17°C
Humedad: 88%
Barómetro: 1023 hPa
Clouds: Parcialmente nuboso
Visibility: 10 km
Cloud details: Few Clouds 1250 m
Parcialmente nuboso 1524 m
2018/08/14 23:30 LEBB 142330Z AUTO 00000KT 9999 FEW041 SCT050 19/17 Q1023
LESO - San Sebastian/Fu, Spain
Distance from station: N 231km
Actualización: 15/08/2018 01:30
Muy nuboso
Muy nuboso
 Viento del varies
Viento: varies 2 km/h
Temperatura: 19°C
Rocío: 18°C
Humedad: 94%
Barómetro: 1023 hPa
Clouds: Muy nuboso
Visibility: 10 km
Cloud details: Parcialmente nuboso 732 m
Muy nuboso 975 m
Muy nuboso 1158 m
2018/08/14 23:30 LESO 142330Z AUTO VRB01KT 9999 SCT024/// BKN032/// BKN038/// 19/18 Q1023
 
LEVD - Valladolid(Mil/C, Spain
Distance from station: ONO 239km
Actualización: 14/08/2018 21:30
NOT Current
Despejado
Despejado
 Viento del ENE
Viento: ENE 13 km/h
Temperatura: 21°C
Rocío: 9°C
Humedad: 46%
Barómetro: 1021 hPa
Resumen: Despejado
Visibility: greater than 10 km
2018/08/14 19:30 LEVD 141930Z 07007KT CAVOK 21/09 Q1021
LESA - Salamanca (civ/M, Spain
Distance from station: ONO 349km
Actualización: 15/08/2018 01:30
Despejado
Despejado
 Viento del SSE
Viento: SSE 6 km/h
Temperatura: 15°C
Rocío: 9°C
Humedad: 68%
Barómetro: 1022 hPa
Clouds: Despejado
Visibility: 9 km
2018/08/14 23:30 LESA 142330Z AUTO 15003KT 110V170 9000 NCD 15/09 Q1022
 
LEXJ - Santander/Paraya, Spain
Distance from station: NNO 247km
Actualización: 15/08/2018 01:30
Cubierto
Cubierto
 Viento del varies
Viento: varies 2 km/h
Temperatura: 19°C
Rocío: 17°C
Humedad: 88%
Barómetro: 1023 hPa
Clouds: Cubierto
Visibility: 8 km
Cloud details: Few Clouds 792 m
Muy nuboso 975 m
Cubierto 1280 m
2018/08/14 23:30 LEXJ 142330Z AUTO VRB01KT 8000 FEW026/// BKN032/// OVC042/// 19/17 Q1023
LEAS - Asturias/Aviles, Spain
Distance from station: NO 214km
Actualización: 15/08/2018 01:30
Few Clouds
Few Clouds
 Viento del ESE
Viento: ESE 9 km/h
Temperatura: 18°C
Rocío: 16°C
Humedad: 88%
Barómetro: 1022 hPa
Clouds: Few Clouds
Visibility: 10 km
Cloud details: Few Clouds 549 m
2018/08/14 23:30 LEAS 142330Z 11005KT 080V160 9999 FEW018 18/16 Q1022 NOSIG
 
LECO - La Coruna/Alvedr, Spain
Distance from station: ONO 222km
Actualización: 15/08/2018 01:30
Despejado
Despejado
 Viento del N
Viento: N 6 km/h
Temperatura: 18°C
Rocío: 16°C
Humedad: 88%
Barómetro: 1020 hPa
Clouds: Despejado
Visibility: 10 km
2018/08/14 23:30 LECO 142330Z AUTO 01003KT 340V040 9999 NCD 18/16 Q1020
LEVX - Vigo/Peinador, Spain
Distance from station: O 214km
Actualización: 15/08/2018 01:30
Despejado
Despejado
 Viento del calm
Viento: Calma
Temperatura: 22°C
Rocío: 17°C
Humedad: 73%
Barómetro: 1017 hPa
Resumen: Despejado
Visibility: greater than 10 km
2018/08/14 23:30 LEVX 142330Z 00000KT CAVOK 22/17 Q1017 NOSIG